createdAt,value
2018-01-22T00:00:11.651Z,15.30
2018-01-22T00:01:11.650Z,15.10
2018-01-22T00:02:11.655Z,14.90
2018-01-22T00:03:11.651Z,12.60
2018-01-22T00:04:11.653Z,13.90
2018-01-22T00:05:11.656Z,15.90
2018-01-22T00:06:11.658Z,13.70
2018-01-22T00:07:11.653Z,14.70
2018-01-22T00:08:11.655Z,14.40
2018-01-22T00:09:12.598Z,15.20
2018-01-22T00:10:11.656Z,13.50
2018-01-22T00:11:11.665Z,15.20
2018-01-22T00:12:11.662Z,16.10
2018-01-22T00:13:11.659Z,14.60
2018-01-22T00:14:11.666Z,14.30
2018-01-22T00:15:11.666Z,13.10
2018-01-22T00:16:11.665Z,14.40
2018-01-22T00:17:11.667Z,13.40
2018-01-22T00:18:11.677Z,14.00
2018-01-22T00:19:11.669Z,12.50
2018-01-22T00:20:11.674Z,13.60
2018-01-22T00:21:11.667Z,14.50
2018-01-22T00:22:11.674Z,12.30
2018-01-22T00:23:11.669Z,19.80
2018-01-22T00:24:11.675Z,15.60
2018-01-22T00:25:11.667Z,12.70
2018-01-22T00:26:12.319Z,13.20
2018-01-22T00:27:12.290Z,15.20
2018-01-22T00:28:12.407Z,12.40
2018-01-22T00:29:12.552Z,13.30
2018-01-22T00:30:11.677Z,13.40
2018-01-22T00:31:11.681Z,15.10
2018-01-22T00:32:11.680Z,14.80
2018-01-22T00:33:11.679Z,14.20
2018-01-22T00:34:11.680Z,13.70
2018-01-22T00:35:11.685Z,12.50
2018-01-22T00:36:11.687Z,11.80
2018-01-22T00:37:11.687Z,13.10
2018-01-22T00:38:11.686Z,13.20
2018-01-22T00:39:11.692Z,15.00
2018-01-22T00:40:11.689Z,13.30
2018-01-22T00:41:11.691Z,15.80
2018-01-22T00:42:11.685Z,14.80
2018-01-22T00:43:11.688Z,14.30
2018-01-22T00:44:11.690Z,14.60
2018-01-22T00:45:11.690Z,13.00
2018-01-22T00:46:11.692Z,14.00
2018-01-22T00:47:11.696Z,11.30
2018-01-22T00:48:11.692Z,13.30
2018-01-22T00:49:11.697Z,14.00
2018-01-22T00:50:11.701Z,12.90
2018-01-22T00:51:11.694Z,14.70
2018-01-22T00:52:11.698Z,12.20
2018-01-22T00:53:11.697Z,13.40
2018-01-22T00:54:11.701Z,11.40
2018-01-22T00:55:12.604Z,12.50
2018-01-22T00:56:11.698Z,13.20
2018-01-22T00:57:11.703Z,13.80
2018-01-22T00:58:11.709Z,15.20
2018-01-22T00:59:11.708Z,11.40
2018-01-22T01:00:11.707Z,13.90
2018-01-22T01:01:11.707Z,11.70
2018-01-22T01:02:11.705Z,11.30
2018-01-22T01:03:11.708Z,14.60
2018-01-22T01:04:11.712Z,12.40
2018-01-22T01:05:11.710Z,12.90
2018-01-22T01:06:11.715Z,11.90
2018-01-22T01:07:11.709Z,13.00
2018-01-22T01:08:11.710Z,11.30
2018-01-22T01:09:11.713Z,12.90
2018-01-22T01:10:11.712Z,11.60
2018-01-22T01:11:11.712Z,15.10
2018-01-22T01:12:11.711Z,13.90
2018-01-22T01:13:11.714Z,14.10
2018-01-22T01:14:11.715Z,13.60
2018-01-22T01:15:11.721Z,11.80
2018-01-22T01:16:11.715Z,12.40
2018-01-22T01:17:11.714Z,12.00
2018-01-22T01:18:11.721Z,11.20
2018-01-22T01:19:11.726Z,14.60
2018-01-22T01:20:11.725Z,11.70
2018-01-22T01:21:11.722Z,11.40
2018-01-22T01:22:11.723Z,12.60
2018-01-22T01:23:11.723Z,14.70
2018-01-22T01:24:11.722Z,12.90
2018-01-22T01:25:11.722Z,11.60
2018-01-22T01:26:11.726Z,12.00
2018-01-22T01:27:11.729Z,16.90
2018-01-22T01:28:11.730Z,12.10
2018-01-22T01:29:11.731Z,13.80
2018-01-22T01:30:11.732Z,11.00
2018-01-22T01:31:11.730Z,11.70
2018-01-22T01:32:11.726Z,13.20
2018-01-22T01:33:11.733Z,11.70
2018-01-22T01:34:11.732Z,10.60
2018-01-22T01:35:11.730Z,10.80
2018-01-22T01:36:11.727Z,10.60
2018-01-22T01:37:11.735Z,12.50
2018-01-22T01:38:11.731Z,11.00
2018-01-22T01:39:11.736Z,12.10
2018-01-22T01:40:11.736Z,11.50
2018-01-22T01:41:11.736Z,12.70
2018-01-22T01:42:12.617Z,11.30
2018-01-22T01:43:11.739Z,12.20
2018-01-22T01:44:11.741Z,14.90
2018-01-22T01:45:11.739Z,11.70
2018-01-22T01:46:11.740Z,10.80
2018-01-22T01:47:11.745Z,10.60
2018-01-22T01:48:11.744Z,9.70
2018-01-22T01:49:11.741Z,11.30
2018-01-22T01:50:11.741Z,11.40
2018-01-22T01:51:11.744Z,9.90
2018-01-22T01:52:11.744Z,13.60
2018-01-22T01:53:12.617Z,12.00
2018-01-22T01:54:11.781Z,9.80
2018-01-22T01:55:11.744Z,11.30
2018-01-22T01:56:11.750Z,9.30
2018-01-22T01:57:11.750Z,11.40
2018-01-22T01:58:11.751Z,11.10
2018-01-22T01:59:11.748Z,8.80
2018-01-22T02:00:11.753Z,9.70
2018-01-22T02:01:11.750Z,9.60
2018-01-22T02:02:11.753Z,9.00
2018-01-22T02:03:11.749Z,9.50
2018-01-22T02:04:11.759Z,10.00
2018-01-22T02:05:11.759Z,8.90
2018-01-22T02:06:11.760Z,10.10
2018-01-22T02:07:11.758Z,9.30
2018-01-22T02:08:11.755Z,10.50
2018-01-22T02:09:11.759Z,8.90
2018-01-22T02:10:11.754Z,8.90
2018-01-22T02:11:11.767Z,8.70
2018-01-22T02:12:11.757Z,8.90
2018-01-22T02:13:11.763Z,9.90
2018-01-22T02:14:11.763Z,8.20
2018-01-22T02:15:11.774Z,10.00
2018-01-22T02:16:12.289Z,8.50
2018-01-22T02:17:12.368Z,8.30
2018-01-22T02:18:11.767Z,8.60
2018-01-22T02:19:11.774Z,9.40
2018-01-22T02:20:11.765Z,8.10
2018-01-22T02:21:11.767Z,8.50
2018-01-22T02:22:11.770Z,9.40
2018-01-22T02:23:11.771Z,8.20
2018-01-22T02:24:11.770Z,8.60
2018-01-22T02:25:11.771Z,8.20
2018-01-22T02:26:11.770Z,8.30
2018-01-22T02:27:11.774Z,8.40
2018-01-22T02:28:11.776Z,7.10
2018-01-22T02:29:11.772Z,8.30
2018-01-22T02:30:11.776Z,7.80
2018-01-22T02:31:11.774Z,7.60
2018-01-22T02:32:11.777Z,7.40
2018-01-22T02:33:11.770Z,7.90
2018-01-22T02:34:11.781Z,7.10
2018-01-22T02:35:11.778Z,7.10
2018-01-22T02:36:11.776Z,7.80
2018-01-22T02:37:11.780Z,8.90
2018-01-22T02:38:11.783Z,7.10
2018-01-22T02:39:11.798Z,10.20
2018-01-22T02:40:12.630Z,9.50
2018-01-22T02:41:11.785Z,9.10
2018-01-22T02:42:11.782Z,9.20
2018-01-22T02:43:11.787Z,7.50
2018-01-22T02:44:11.787Z,8.80
2018-01-22T02:45:11.779Z,9.40
2018-01-22T02:46:11.785Z,7.60
2018-01-22T02:47:11.807Z,9.10
2018-01-22T02:48:11.787Z,8.30
2018-01-22T02:49:11.786Z,8.90
2018-01-22T02:50:11.793Z,7.90
2018-01-22T02:51:11.788Z,8.00
2018-01-22T02:52:11.796Z,10.00
2018-01-22T02:53:11.792Z,8.70
2018-01-22T02:54:11.796Z,7.70
2018-01-22T02:55:11.817Z,10.20
2018-01-22T02:56:11.798Z,7.60
2018-01-22T02:57:11.791Z,7.90
2018-01-22T02:58:11.797Z,8.70
2018-01-22T02:59:11.794Z,8.00
2018-01-22T03:00:11.797Z,8.80
2018-01-22T03:01:11.793Z,9.80
2018-01-22T03:02:11.798Z,9.00
2018-01-22T03:03:11.797Z,10.20
2018-01-22T03:04:11.799Z,8.50
2018-01-22T03:05:11.814Z,8.80
2018-01-22T03:06:11.798Z,9.00
2018-01-22T03:07:11.817Z,9.30
2018-01-22T03:08:11.798Z,9.30
2018-01-22T03:09:11.803Z,8.20
2018-01-22T03:10:11.800Z,8.80
2018-01-22T03:11:11.804Z,8.10
2018-01-22T03:12:11.802Z,11.00
2018-01-22T03:13:11.807Z,8.70
2018-01-22T03:14:11.805Z,9.30
2018-01-22T03:15:11.809Z,9.40
2018-01-22T03:16:11.804Z,9.50
2018-01-22T03:17:11.812Z,11.40
2018-01-22T03:18:11.806Z,9.10
2018-01-22T03:19:11.808Z,8.90
2018-01-22T03:20:11.806Z,8.30
2018-01-22T03:21:11.809Z,12.20
2018-01-22T03:22:11.809Z,9.90
2018-01-22T03:23:11.812Z,8.80
2018-01-22T03:24:11.812Z,8.20
2018-01-22T03:25:11.811Z,8.90
2018-01-22T03:26:11.810Z,9.40
2018-01-22T03:27:11.815Z,11.40
2018-01-22T03:28:11.818Z,8.40
2018-01-22T03:29:11.813Z,8.50
2018-01-22T03:30:11.810Z,9.30
2018-01-22T03:31:11.817Z,8.90
2018-01-22T03:32:11.819Z,8.50
2018-01-22T03:33:11.819Z,8.40
2018-01-22T03:34:11.815Z,8.30
2018-01-22T03:35:11.818Z,7.70
2018-01-22T03:36:11.822Z,8.90
2018-01-22T03:37:11.815Z,9.20
2018-01-22T03:38:11.816Z,8.10
2018-01-22T03:39:11.825Z,8.20
2018-01-22T03:40:11.820Z,7.90
2018-01-22T03:41:11.821Z,8.10
2018-01-22T03:42:11.819Z,7.30
2018-01-22T03:43:11.821Z,7.10
2018-01-22T03:44:11.821Z,8.20
2018-01-22T03:45:11.830Z,8.00
2018-01-22T03:46:11.827Z,8.30
2018-01-22T03:47:11.823Z,8.20
2018-01-22T03:48:11.823Z,7.50
2018-01-22T03:49:11.831Z,7.60
2018-01-22T03:50:11.867Z,9.00
2018-01-22T03:51:11.826Z,7.30
2018-01-22T03:52:11.826Z,7.60
2018-01-22T03:53:11.828Z,9.80
2018-01-22T03:54:11.827Z,7.30
2018-01-22T03:55:11.837Z,8.20
2018-01-22T03:56:11.825Z,8.10
2018-01-22T03:57:11.827Z,9.70
2018-01-22T03:58:11.831Z,7.70
2018-01-22T03:59:11.832Z,6.70
2018-01-22T04:00:11.832Z,7.50
2018-01-22T04:01:11.829Z,7.80
2018-01-22T04:02:11.832Z,7.80
2018-01-22T04:03:11.828Z,7.00
2018-01-22T04:04:11.829Z,7.60
2018-01-22T04:05:11.838Z,7.20
2018-01-22T04:06:11.840Z,8.00
2018-01-22T04:07:11.835Z,7.10
2018-01-22T04:08:11.841Z,10.00
2018-01-22T04:09:11.831Z,6.90
2018-01-22T04:10:11.830Z,7.40
2018-01-22T04:11:11.841Z,6.80
2018-01-22T04:12:11.842Z,8.20
2018-01-22T04:13:11.842Z,7.00
2018-01-22T04:14:11.841Z,8.10
2018-01-22T04:15:11.841Z,7.20
2018-01-22T04:16:11.844Z,6.70
2018-01-22T04:17:11.841Z,7.70
2018-01-22T04:18:11.837Z,7.60
2018-01-22T04:19:11.841Z,7.70
2018-01-22T04:20:11.840Z,7.80
2018-01-22T04:21:12.648Z,7.80
2018-01-22T04:22:11.840Z,7.70
2018-01-22T04:23:11.853Z,7.80
2018-01-22T04:24:11.842Z,7.80
2018-01-22T04:25:11.846Z,7.90
2018-01-22T04:26:11.846Z,7.90
2018-01-22T04:27:11.853Z,8.70
2018-01-22T04:28:11.845Z,8.50
2018-01-22T04:29:11.847Z,8.60
2018-01-22T04:30:11.850Z,8.40
2018-01-22T04:31:11.867Z,8.30
2018-01-22T04:32:11.850Z,8.50
2018-01-22T04:33:11.855Z,9.30
2018-01-22T04:34:11.857Z,10.70
2018-01-22T04:35:11.854Z,10.60
2018-01-22T04:36:11.853Z,8.80
2018-01-22T04:37:11.858Z,17.90
2018-01-22T04:38:11.860Z,10.80
2018-01-22T04:39:11.856Z,9.10
2018-01-22T04:40:11.854Z,9.70
2018-01-22T04:41:11.858Z,10.80
2018-01-22T04:42:11.860Z,10.90
2018-01-22T04:43:11.897Z,10.30
2018-01-22T04:44:11.858Z,9.90
2018-01-22T04:45:11.858Z,10.20
2018-01-22T04:46:11.866Z,10.80
2018-01-22T04:47:11.861Z,11.90
2018-01-22T04:48:11.865Z,10.60
2018-01-22T04:49:11.863Z,10.00
2018-01-22T04:50:11.874Z,13.10
2018-01-22T04:51:11.860Z,11.70
2018-01-22T04:52:11.863Z,10.10
2018-01-22T04:53:11.868Z,12.30
2018-01-22T04:54:11.871Z,10.60
2018-01-22T04:55:11.871Z,13.20
2018-01-22T04:56:11.875Z,10.00
2018-01-22T04:57:11.873Z,12.10
2018-01-22T04:58:11.873Z,10.60
2018-01-22T04:59:11.873Z,10.80
2018-01-22T05:00:11.873Z,11.20
2018-01-22T05:01:11.866Z,9.90
2018-01-22T05:02:11.911Z,13.60
2018-01-22T05:03:11.923Z,11.40
2018-01-22T05:04:11.882Z,12.90
2018-01-22T05:05:11.876Z,10.90
2018-01-22T05:06:11.878Z,11.20
2018-01-22T05:07:11.878Z,10.00
2018-01-22T05:08:11.879Z,12.10
2018-01-22T05:09:12.657Z,12.00
2018-01-22T05:10:11.875Z,11.40
2018-01-22T05:11:11.874Z,10.90
2018-01-22T05:12:11.885Z,13.10
2018-01-22T05:13:11.882Z,10.30
2018-01-22T05:14:11.885Z,10.30
2018-01-22T05:15:11.879Z,10.90
2018-01-22T05:16:11.883Z,12.00
2018-01-22T05:17:11.885Z,13.30
2018-01-22T05:18:11.882Z,10.30
2018-01-22T05:19:11.884Z,16.90
2018-01-22T05:20:11.892Z,11.40
2018-01-22T05:21:11.891Z,11.40
2018-01-22T05:22:11.895Z,11.40
2018-01-22T05:23:11.891Z,10.70
2018-01-22T05:24:11.886Z,10.50
2018-01-22T05:25:11.887Z,11.10
2018-01-22T05:26:11.890Z,11.90
2018-01-22T05:27:11.946Z,11.30
2018-01-22T05:28:11.892Z,17.60
2018-01-22T05:29:11.893Z,10.30
2018-01-22T05:30:11.894Z,11.40
2018-01-22T05:31:11.896Z,10.70
2018-01-22T05:32:11.888Z,12.50
2018-01-22T05:33:11.892Z,12.30
2018-01-22T05:34:11.900Z,11.10
2018-01-22T05:35:11.900Z,12.90
2018-01-22T05:36:11.904Z,11.20
2018-01-22T05:37:11.895Z,10.50
2018-01-22T05:38:12.665Z,10.90
2018-01-22T05:39:11.900Z,11.20
2018-01-22T05:40:11.897Z,13.30
2018-01-22T05:41:11.903Z,10.70
2018-01-22T05:42:11.902Z,12.40
2018-01-22T05:43:11.900Z,11.50
2018-01-22T05:44:11.897Z,13.10
2018-01-22T05:45:11.905Z,18.10
2018-01-22T05:46:11.899Z,11.90
2018-01-22T05:47:11.908Z,12.10
2018-01-22T05:48:11.910Z,18.80
2018-01-22T05:49:11.907Z,16.70
2018-01-22T05:50:11.909Z,12.50
2018-01-22T05:51:11.913Z,13.70
2018-01-22T05:52:11.916Z,12.00
2018-01-22T05:53:11.907Z,12.20
2018-01-22T05:54:11.909Z,11.90
2018-01-22T05:55:11.912Z,12.90
2018-01-22T05:56:11.915Z,14.50
2018-01-22T05:57:11.908Z,14.00
2018-01-22T05:58:11.911Z,13.50
2018-01-22T05:59:11.920Z,11.90
2018-01-22T06:00:11.920Z,15.40
2018-01-22T06:01:11.921Z,17.90
2018-01-22T06:02:11.927Z,25.40
2018-01-22T06:03:11.926Z,16.40
2018-01-22T06:04:11.913Z,11.10
2018-01-22T06:05:11.923Z,12.50
2018-01-22T06:06:11.919Z,11.80
2018-01-22T06:07:11.926Z,13.60
2018-01-22T06:08:11.922Z,12.00
2018-01-22T06:09:11.926Z,15.60
2018-01-22T06:10:11.920Z,14.10
2018-01-22T06:11:11.934Z,12.20
2018-01-22T06:12:11.921Z,11.70
2018-01-22T06:13:11.930Z,16.00
2018-01-22T06:14:11.926Z,13.30
2018-01-22T06:15:11.932Z,14.60
2018-01-22T06:16:11.927Z,14.80
2018-01-22T06:17:11.935Z,14.40
2018-01-22T06:18:11.927Z,17.60
2018-01-22T06:19:11.931Z,15.80
2018-01-22T06:20:11.939Z,12.80
2018-01-22T06:21:11.930Z,12.70
2018-01-22T06:22:11.943Z,12.20
2018-01-22T06:23:11.937Z,14.80
2018-01-22T06:24:11.940Z,12.70
2018-01-22T06:25:11.938Z,14.00
2018-01-22T06:26:11.942Z,13.10
2018-01-22T06:27:11.950Z,12.70
2018-01-22T06:28:11.950Z,12.20
2018-01-22T06:29:11.949Z,14.50
2018-01-22T06:30:11.947Z,17.00
2018-01-22T06:31:11.941Z,13.70
2018-01-22T06:32:11.948Z,15.90
2018-01-22T06:33:11.944Z,14.50
2018-01-22T06:34:12.672Z,14.70
2018-01-22T06:35:11.950Z,14.10
2018-01-22T06:36:11.964Z,13.80
2018-01-22T06:37:11.968Z,16.70
2018-01-22T06:38:11.958Z,15.90
2018-01-22T06:39:11.960Z,16.70
2018-01-22T06:40:11.954Z,20.50
2018-01-22T06:42:04.886Z,15.80
2018-01-22T06:43:04.864Z,17.50
2018-01-22T06:44:57.837Z,15.90
2018-01-22T06:45:57.821Z,17.00
2018-01-22T06:47:50.781Z,17.90
2018-01-22T06:48:50.789Z,18.50
2018-01-22T06:50:43.762Z,24.10
2018-01-22T06:51:43.739Z,25.80
2018-01-22T06:53:36.689Z,24.50
2018-01-22T06:54:36.684Z,22.00
2018-01-22T06:56:29.665Z,25.70
2018-01-22T06:57:29.645Z,26.40
2018-01-22T06:59:22.603Z,24.80
2018-01-22T07:00:22.599Z,25.60
2018-01-22T07:02:15.590Z,22.40
2018-01-22T07:03:15.554Z,23.30
2018-01-22T07:05:08.518Z,29.70
2018-01-22T07:06:08.520Z,29.30
2018-01-22T07:08:01.496Z,22.20
2018-01-22T07:09:01.474Z,22.40
2018-01-22T07:10:54.436Z,23.70
2018-01-22T07:11:54.429Z,25.10
2018-01-22T07:13:47.407Z,24.00
2018-01-22T07:14:47.384Z,22.10
2018-01-22T07:16:40.355Z,22.20
2018-01-22T07:17:40.346Z,22.50
2018-01-22T07:18:40.345Z,28.40
2018-01-22T07:19:40.349Z,23.10
2018-01-22T07:20:40.507Z,28.60
2018-01-22T07:21:41.368Z,23.70
2018-01-22T07:23:33.452Z,23.90
2018-01-22T07:24:33.349Z,23.90
2018-01-22T07:26:26.329Z,21.40
2018-01-22T07:27:27.295Z,27.40
2018-01-22T07:29:21.729Z,23.10
2018-01-22T07:30:19.255Z,23.10
2018-01-22T07:32:12.256Z,21.40
2018-01-22T07:33:12.199Z,24.20
2018-01-22T07:35:05.167Z,26.80
2018-01-22T07:36:05.161Z,21.80
2018-01-22T07:37:58.143Z,23.60
2018-01-22T07:38:58.114Z,22.70
2018-01-22T07:40:51.079Z,23.70
2018-01-22T07:41:51.075Z,24.50
2018-01-22T07:43:44.054Z,25.20
2018-01-22T07:44:44.033Z,21.30
2018-01-22T07:46:36.995Z,23.40
2018-01-22T07:47:36.988Z,22.10
2018-01-22T07:49:29.976Z,23.90
2018-01-22T07:50:29.948Z,23.40
2018-01-22T07:52:22.910Z,23.60
2018-01-22T07:53:22.901Z,23.20
2018-01-22T07:55:15.891Z,24.10
2018-01-22T07:56:15.863Z,22.70
2018-01-22T07:58:08.819Z,22.30
2018-01-22T07:59:08.820Z,23.30
2018-01-22T08:01:01.802Z,26.60
2018-01-22T08:02:01.777Z,24.50
2018-01-22T08:03:54.737Z,28.10
2018-01-22T08:04:54.748Z,28.90
2018-01-22T08:06:47.720Z,24.70
2018-01-22T08:07:47.690Z,24.70
2018-01-22T08:09:40.661Z,23.70
2018-01-22T08:10:40.657Z,23.30
2018-01-22T08:12:33.846Z,23.10
2018-01-22T08:13:33.603Z,21.50
2018-01-22T08:14:33.607Z,22.50
2018-01-22T08:15:33.608Z,23.80
2018-01-22T08:16:33.609Z,22.30
2018-01-22T08:17:33.606Z,25.90
2018-01-22T08:18:33.612Z,21.10
2018-01-22T08:19:33.620Z,23.60
2018-01-22T08:20:33.614Z,23.10
2018-01-22T08:21:33.615Z,23.10
2018-01-22T08:22:33.620Z,21.10
2018-01-22T08:23:33.618Z,21.80
2018-01-22T08:24:33.632Z,22.00
2018-01-22T08:25:33.623Z,22.50
2018-01-22T08:26:33.666Z,21.10
2018-01-22T08:27:33.635Z,20.40
2018-01-22T08:28:33.659Z,20.30
2018-01-22T08:29:33.627Z,20.40
2018-01-22T08:30:33.652Z,20.40
2018-01-22T08:31:33.652Z,20.10
2018-01-22T08:32:33.656Z,19.70
2018-01-22T08:33:33.650Z,21.20
2018-01-22T08:34:33.656Z,20.70
2018-01-22T08:35:33.677Z,20.40
2018-01-22T08:36:33.660Z,25.20
2018-01-22T08:37:34.775Z,22.20
2018-01-22T08:38:33.652Z,22.20
2018-01-22T08:39:33.649Z,24.20
2018-01-22T08:40:33.647Z,25.20
2018-01-22T08:41:33.673Z,24.00
2018-01-22T08:42:33.652Z,25.50
2018-01-22T08:43:33.656Z,23.90
2018-01-22T08:44:33.656Z,25.10
2018-01-22T08:45:33.660Z,23.80
2018-01-22T08:46:33.658Z,25.70
2018-01-22T08:47:33.665Z,26.20
2018-01-22T08:48:33.662Z,24.60
2018-01-22T08:49:33.682Z,25.30
2018-01-22T08:50:33.668Z,28.00
2018-01-22T08:51:33.668Z,29.00
2018-01-22T08:52:33.673Z,27.60
2018-01-22T08:53:33.676Z,28.20
2018-01-22T08:54:33.673Z,27.70
2018-01-22T08:55:33.679Z,26.80
2018-01-22T08:56:33.709Z,28.30
2018-01-22T08:57:33.682Z,28.30
2018-01-22T08:58:33.685Z,27.70
2018-01-22T08:59:33.689Z,36.10
2018-01-22T09:00:33.680Z,30.10
2018-01-22T09:01:33.686Z,32.40
2018-01-22T09:02:33.693Z,31.60
2018-01-22T09:03:33.698Z,29.30
2018-01-22T09:04:33.695Z,35.30
2018-01-22T09:05:33.698Z,31.00
2018-01-22T09:06:33.699Z,30.10
2018-01-22T09:07:33.702Z,29.70
2018-01-22T09:08:33.701Z,33.00
2018-01-22T09:09:33.704Z,34.70
2018-01-22T09:10:33.708Z,38.20
2018-01-22T09:11:33.708Z,40.60
2018-01-22T09:12:33.709Z,36.80
2018-01-22T09:13:33.710Z,41.60
2018-01-22T09:14:33.713Z,35.20
2018-01-22T09:15:33.718Z,42.60
2018-01-22T09:16:33.723Z,37.40
2018-01-22T09:17:33.719Z,35.40
2018-01-22T09:18:33.725Z,41.90
2018-01-22T09:19:33.725Z,39.80
2018-01-22T09:20:33.731Z,38.80
2018-01-22T09:21:33.732Z,46.80
2018-01-22T09:22:33.728Z,40.40
2018-01-22T09:23:33.732Z,38.70
2018-01-22T09:24:33.739Z,40.10
2018-01-22T09:25:33.737Z,40.50
2018-01-22T09:26:33.738Z,51.40
2018-01-22T09:27:33.745Z,48.50
2018-01-22T09:28:33.749Z,47.70
2018-01-22T09:29:33.748Z,48.50
2018-01-22T09:30:33.750Z,44.60
2018-01-22T09:31:33.747Z,46.40
2018-01-22T09:32:33.750Z,49.20
2018-01-22T09:33:33.757Z,52.60
2018-01-22T09:34:33.772Z,66.00
2018-01-22T09:35:33.760Z,54.10
2018-01-22T09:36:33.771Z,51.40
2018-01-22T09:37:33.761Z,44.80
2018-01-22T09:38:33.768Z,61.10
2018-01-22T09:39:33.769Z,65.30
2018-01-22T09:40:33.778Z,53.60
2018-01-22T09:41:33.773Z,51.80
2018-01-22T09:42:33.780Z,47.30
2018-01-22T09:43:33.781Z,53.30
2018-01-22T09:44:33.779Z,43.90
2018-01-22T09:45:33.775Z,50.50
2018-01-22T09:46:33.799Z,52.20
2018-01-22T09:47:33.782Z,44.60
2018-01-22T09:48:33.787Z,45.10
2018-01-22T09:49:33.789Z,45.40
2018-01-22T09:50:33.791Z,40.30
2018-01-22T09:51:33.795Z,37.30
2018-01-22T09:52:33.796Z,40.70
2018-01-22T09:53:33.801Z,38.40
2018-01-22T09:54:33.802Z,37.10
2018-01-22T09:55:33.804Z,38.80
2018-01-22T09:56:33.804Z,37.60
2018-01-22T09:57:33.808Z,37.80
2018-01-22T09:58:33.809Z,41.60
2018-01-22T09:59:33.822Z,37.40
2018-01-22T10:00:33.819Z,39.20
2018-01-22T10:01:33.820Z,39.70
2018-01-22T10:02:33.819Z,35.00
2018-01-22T10:03:33.824Z,33.90
2018-01-22T10:04:33.844Z,32.30
2018-01-22T10:05:33.827Z,32.00
2018-01-22T10:06:33.825Z,34.60
2018-01-22T10:07:33.831Z,31.10
2018-01-22T10:08:33.840Z,33.60
2018-01-22T10:09:33.841Z,38.40
2018-01-22T10:10:33.841Z,34.60
2018-01-22T10:11:33.842Z,37.30
2018-01-22T10:12:33.858Z,30.20
2018-01-22T10:13:33.853Z,30.20
2018-01-22T10:14:33.854Z,30.10
2018-01-22T10:15:33.856Z,26.70
2018-01-22T10:16:33.854Z,29.30
2018-01-22T10:17:33.918Z,28.80
2018-01-22T10:18:33.860Z,29.70
2018-01-22T10:19:33.863Z,28.70
2018-01-22T10:20:33.868Z,29.30
2018-01-22T10:21:33.868Z,33.10
2018-01-22T10:22:33.872Z,28.40
2018-01-22T10:23:33.871Z,29.70
2018-01-22T10:24:33.878Z,32.80
2018-01-22T10:25:33.878Z,28.00
2018-01-22T10:26:33.888Z,28.20
2018-01-22T10:27:33.880Z,31.60
2018-01-22T10:28:33.889Z,26.70
2018-01-22T10:29:33.906Z,29.60
2018-01-22T10:30:33.892Z,26.60
2018-01-22T10:31:33.893Z,30.50
2018-01-22T10:32:33.897Z,23.20
2018-01-22T10:33:33.898Z,26.60
2018-01-22T10:34:33.906Z,24.30
2018-01-22T10:35:33.907Z,28.00
2018-01-22T10:36:33.913Z,27.40
2018-01-22T10:37:33.920Z,29.70
2018-01-22T10:38:33.914Z,28.30
2018-01-22T10:39:33.958Z,34.20
2018-01-22T10:40:33.923Z,30.80
2018-01-22T10:41:33.919Z,35.30
2018-01-22T10:42:33.928Z,31.90
2018-01-22T10:43:33.923Z,30.60
2018-01-22T10:44:33.931Z,28.80
2018-01-22T10:45:33.935Z,31.20
2018-01-22T10:46:33.937Z,33.30
2018-01-22T10:47:33.939Z,31.50
2018-01-22T10:48:33.943Z,37.40
2018-01-22T10:49:33.942Z,36.20
2018-01-22T10:50:33.945Z,37.70
2018-01-22T10:51:33.949Z,36.30
2018-01-22T10:52:33.959Z,37.00
2018-01-22T10:53:33.951Z,37.70
2018-01-22T10:54:33.981Z,37.40
2018-01-22T10:55:33.961Z,38.20
2018-01-22T10:56:33.958Z,37.10
2018-01-22T10:57:33.964Z,37.30
2018-01-22T10:58:33.970Z,40.50
2018-01-22T10:59:33.980Z,42.00
2018-01-22T11:00:33.975Z,40.60
2018-01-22T11:01:33.974Z,41.30
2018-01-22T11:02:33.999Z,40.80
2018-01-22T11:03:33.980Z,44.30
2018-01-22T11:04:33.987Z,40.60
2018-01-22T11:05:33.987Z,43.90
2018-01-22T11:06:34.002Z,43.00
2018-01-22T11:07:33.985Z,46.50
2018-01-22T11:08:33.995Z,40.80
2018-01-22T11:09:34.004Z,43.20
2018-01-22T11:10:34.000Z,46.30
2018-01-22T11:11:34.000Z,44.90
2018-01-22T11:12:34.008Z,42.20
2018-01-22T11:13:34.007Z,45.50
2018-01-22T11:14:34.012Z,48.70
2018-01-22T11:15:34.014Z,44.50
2018-01-22T11:16:34.015Z,46.60
2018-01-22T11:17:34.019Z,59.80
2018-01-22T11:18:34.016Z,56.80
2018-01-22T11:19:34.024Z,54.50
2018-01-22T11:20:34.027Z,48.50
2018-01-22T11:21:34.035Z,49.00
2018-01-22T11:22:34.035Z,54.60
2018-01-22T11:23:34.037Z,50.40
2018-01-22T11:24:34.036Z,49.70
2018-01-22T11:25:34.036Z,47.90
2018-01-22T11:26:34.045Z,57.60
2018-01-22T11:27:34.049Z,48.80
2018-01-22T11:28:34.048Z,51.70
2018-01-22T11:29:34.052Z,60.50
2018-01-22T11:30:34.649Z,55.00
2018-01-22T11:31:34.064Z,57.60
2018-01-22T11:32:34.078Z,60.30
2018-01-22T11:33:34.061Z,61.00
2018-01-22T11:34:34.069Z,62.90
2018-01-22T11:35:34.071Z,61.60
2018-01-22T11:36:34.070Z,63.40
2018-01-22T11:37:34.077Z,75.20
2018-01-22T11:38:34.076Z,68.00
2018-01-22T11:39:34.082Z,63.40
2018-01-22T11:40:34.083Z,73.70
2018-01-22T11:41:34.086Z,69.70
2018-01-22T11:42:34.088Z,64.10
2018-01-22T11:43:34.094Z,59.40
2018-01-22T11:44:34.093Z,64.20
2018-01-22T11:45:34.101Z,63.40
2018-01-22T11:46:34.101Z,69.40
2018-01-22T11:47:34.105Z,66.30
2018-01-22T11:48:34.102Z,63.20
2018-01-22T11:49:34.121Z,62.30
2018-01-22T11:50:34.108Z,67.20
2018-01-22T11:51:34.116Z,61.90
2018-01-22T11:52:34.119Z,64.20
2018-01-22T11:53:34.119Z,55.70
2018-01-22T11:54:34.124Z,57.50
2018-01-22T11:55:34.125Z,62.60
2018-01-22T11:56:34.130Z,56.30
2018-01-22T11:57:34.131Z,59.40
2018-01-22T11:58:34.133Z,62.00
2018-01-22T11:59:34.140Z,61.00
2018-01-22T12:00:34.142Z,55.10
2018-01-22T12:01:34.177Z,56.50
2018-01-22T12:02:34.149Z,54.10
2018-01-22T12:03:34.149Z,56.70
2018-01-22T12:04:34.160Z,62.30
2018-01-22T12:05:34.150Z,65.10
2018-01-22T12:06:34.160Z,59.50
2018-01-22T12:07:34.163Z,51.80
2018-01-22T12:08:35.153Z,48.40
2018-01-22T12:09:34.166Z,55.00
2018-01-22T12:10:34.175Z,49.00
2018-01-22T12:11:34.179Z,50.00
2018-01-22T12:12:34.176Z,50.10
2018-01-22T12:13:34.179Z,54.00
2018-01-22T12:14:34.186Z,52.40
2018-01-22T12:15:34.189Z,51.50
2018-01-22T12:16:34.188Z,52.10
2018-01-22T12:17:34.189Z,54.20
2018-01-22T12:18:34.201Z,46.60
2018-01-22T12:19:34.204Z,45.80
2018-01-22T12:20:34.201Z,42.70
2018-01-22T12:21:34.205Z,42.90
2018-01-22T12:22:34.213Z,43.70
2018-01-22T12:23:34.214Z,44.30
2018-01-22T12:24:34.216Z,45.10
2018-01-22T12:25:34.219Z,39.10
2018-01-22T12:26:34.223Z,39.60
2018-01-22T12:27:34.227Z,37.60
2018-01-22T12:28:34.229Z,39.00
2018-01-22T12:29:34.241Z,40.70
2018-01-22T12:30:34.232Z,39.90
2018-01-22T12:31:34.241Z,39.00
2018-01-22T12:32:34.240Z,36.20
2018-01-22T12:33:34.248Z,39.20
2018-01-22T12:34:34.253Z,38.80
2018-01-22T12:35:34.256Z,39.40
2018-01-22T12:36:34.254Z,43.20
2018-01-22T12:37:34.258Z,37.60
2018-01-22T12:38:34.260Z,37.00
2018-01-22T12:39:34.270Z,38.00
2018-01-22T12:40:34.271Z,36.50
2018-01-22T12:41:34.275Z,34.10
2018-01-22T12:42:34.273Z,35.50
2018-01-22T12:43:34.283Z,37.60
2018-01-22T12:44:34.287Z,34.50
2018-01-22T12:45:34.284Z,40.50
2018-01-22T12:46:34.292Z,35.50
2018-01-22T12:47:34.302Z,42.20
2018-01-22T12:48:34.295Z,38.20
2018-01-22T12:49:34.298Z,35.60
2018-01-22T12:50:34.306Z,35.70
2018-01-22T12:51:34.307Z,40.30
2018-01-22T12:52:34.314Z,31.00
2018-01-22T12:53:34.312Z,34.40
2018-01-22T12:54:34.324Z,33.60
2018-01-22T12:55:34.321Z,34.70
2018-01-22T12:56:34.329Z,32.40
2018-01-22T12:57:34.327Z,33.20
2018-01-22T12:58:34.336Z,34.00
2018-01-22T12:59:34.330Z,32.40
2018-01-22T13:00:34.342Z,27.60
2018-01-22T13:01:34.346Z,30.00
2018-01-22T13:02:34.347Z,32.80
2018-01-22T13:03:34.356Z,29.90
2018-01-22T13:04:34.355Z,31.00
2018-01-22T13:05:34.408Z,28.40
2018-01-22T13:06:34.366Z,33.00
2018-01-22T13:07:34.370Z,29.60
2018-01-22T13:08:34.371Z,27.60
2018-01-22T13:09:34.373Z,28.70
2018-01-22T13:10:34.379Z,31.10
2018-01-22T13:11:34.386Z,31.80
2018-01-22T13:12:34.384Z,24.70
2018-01-22T13:13:34.388Z,25.10
2018-01-22T13:14:34.397Z,29.20
2018-01-22T13:15:34.399Z,27.90
2018-01-22T13:16:34.403Z,29.60
2018-01-22T13:17:34.409Z,27.40
2018-01-22T13:18:34.408Z,26.30
2018-01-22T13:19:34.413Z,30.50
2018-01-22T13:20:34.421Z,30.70
2018-01-22T13:21:34.424Z,30.00
2018-01-22T13:22:34.424Z,27.70
2018-01-22T13:23:34.427Z,25.70
2018-01-22T13:24:34.436Z,29.20